sensor_id;sensor_type;location;lat;lon;timestamp;temperature;humidity
45729;DHT22;31439;53.512;10.206;2023-01-09T00:01:34;7.60;99.90
45729;DHT22;31439;53.512;10.206;2023-01-09T00:04:00;7.60;99.90
45729;DHT22;31439;53.512;10.206;2023-01-09T00:06:26;7.60;99.90
45729;DHT22;31439;53.512;10.206;2023-01-09T00:08:52;7.60;99.90
45729;DHT22;31439;53.512;10.206;2023-01-09T00:11:18;7.60;99.90
45729;DHT22;31439;53.512;10.206;2023-01-09T00:13:44;7.60;99.90
45729;DHT22;31439;53.512;10.206;2023-01-09T00:16:09;7.50;99.90
45729;DHT22;31439;53.512;10.206;2023-01-09T00:18:36;7.60;99.90
45729;DHT22;31439;53.512;10.206;2023-01-09T00:21:03;7.40;99.90
45729;DHT22;31439;53.512;10.206;2023-01-09T00:23:29;7.50;99.90
45729;DHT22;31439;53.512;10.206;2023-01-09T00:26:12;7.50;99.90
45729;DHT22;31439;53.512;10.206;2023-01-09T00:28:38;7.50;99.90
45729;DHT22;31439;53.512;10.206;2023-01-09T00:31:05;7.50;99.90
45729;DHT22;31439;53.512;10.206;2023-01-09T00:33:37;7.60;99.90
45729;DHT22;31439;53.512;10.206;2023-01-09T00:36:04;7.50;99.90
45729;DHT22;31439;53.512;10.206;2023-01-09T00:38:30;7.50;99.90
45729;DHT22;31439;53.512;10.206;2023-01-09T00:40:56;7.70;99.90
45729;DHT22;31439;53.512;10.206;2023-01-09T00:43:26;7.50;99.90
45729;DHT22;31439;53.512;10.206;2023-01-09T00:45:53;7.50;99.90
45729;DHT22;31439;53.512;10.206;2023-01-09T00:48:19;7.60;99.90
45729;DHT22;31439;53.512;10.206;2023-01-09T00:50:58;7.50;99.90
45729;DHT22;31439;53.512;10.206;2023-01-09T00:53:27;7.50;99.90
45729;DHT22;31439;53.512;10.206;2023-01-09T00:55:54;7.50;99.90
45729;DHT22;31439;53.512;10.206;2023-01-09T00:58:22;7.50;99.90
45729;DHT22;31439;53.512;10.206;2023-01-09T01:00:48;7.50;99.90
45729;DHT22;31439;53.512;10.206;2023-01-09T01:03:13;7.50;99.90
45729;DHT22;31439;53.512;10.206;2023-01-09T01:05:39;7.50;99.90
45729;DHT22;31439;53.512;10.206;2023-01-09T01:08:23;7.50;99.90
45729;DHT22;31439;53.512;10.206;2023-01-09T01:10:49;7.50;99.90
45729;DHT22;31439;53.512;10.206;2023-01-09T01:13:15;7.50;99.90
45729;DHT22;31439;53.512;10.206;2023-01-09T01:15:42;7.50;99.90
45729;DHT22;31439;53.512;10.206;2023-01-09T01:18:09;7.50;99.90
45729;DHT22;31439;53.512;10.206;2023-01-09T01:20:35;7.40;99.90
45729;DHT22;31439;53.512;10.206;2023-01-09T01:23:01;7.40;99.90
45729;DHT22;31439;53.512;10.206;2023-01-09T01:25:27;7.50;99.90
45729;DHT22;31439;53.512;10.206;2023-01-09T01:27:52;7.50;99.90
45729;DHT22;31439;53.512;10.206;2023-01-09T01:30:18;7.50;99.90
45729;DHT22;31439;53.512;10.206;2023-01-09T01:32:44;7.50;99.90
45729;DHT22;31439;53.512;10.206;2023-01-09T01:35:11;7.50;99.90
45729;DHT22;31439;53.512;10.206;2023-01-09T01:37:37;7.50;99.90
45729;DHT22;31439;53.512;10.206;2023-01-09T01:40:04;7.50;99.90
45729;DHT22;31439;53.512;10.206;2023-01-09T01:42:30;7.60;99.90
45729;DHT22;31439;53.512;10.206;2023-01-09T01:47:50;7.60;99.90
45729;DHT22;31439;53.512;10.206;2023-01-09T01:50:34;7.60;99.90
45729;DHT22;31439;53.512;10.206;2023-01-09T01:53:04;7.60;99.90
45729;DHT22;31439;53.512;10.206;2023-01-09T01:55:32;7.60;99.90
45729;DHT22;31439;53.512;10.206;2023-01-09T01:58:02;7.70;99.90
45729;DHT22;31439;53.512;10.206;2023-01-09T02:00:36;7.70;99.90
45729;DHT22;31439;53.512;10.206;2023-01-09T02:03:02;7.70;99.90
45729;DHT22;31439;53.512;10.206;2023-01-09T02:05:29;7.60;99.90
45729;DHT22;31439;53.512;10.206;2023-01-09T02:07:55;7.70;99.90
45729;DHT22;31439;53.512;10.206;2023-01-09T02:10:21;7.70;99.90
45729;DHT22;31439;53.512;10.206;2023-01-09T02:12:48;7.70;99.90
45729;DHT22;31439;53.512;10.206;2023-01-09T02:15:14;7.70;99.90
45729;DHT22;31439;53.512;10.206;2023-01-09T02:20:42;7.70;99.90
45729;DHT22;31439;53.512;10.206;2023-01-09T02:26:40;7.80;99.90
45729;DHT22;31439;53.512;10.206;2023-01-09T02:32:28;7.80;99.90
45729;DHT22;31439;53.512;10.206;2023-01-09T02:37:48;7.80;99.90
45729;DHT22;31439;53.512;10.206;2023-01-09T02:40:25;7.70;99.90
45729;DHT22;31439;53.512;10.206;2023-01-09T02:42:53;7.70;99.90
45729;DHT22;31439;53.512;10.206;2023-01-09T02:45:20;7.70;99.90
45729;DHT22;31439;53.512;10.206;2023-01-09T02:47:46;7.70;99.90
45729;DHT22;31439;53.512;10.206;2023-01-09T02:50:25;7.70;99.90
45729;DHT22;31439;53.512;10.206;2023-01-09T02:53:33;7.80;99.90
45729;DHT22;31439;53.512;10.206;2023-01-09T02:56:04;7.80;99.90
45729;DHT22;31439;53.512;10.206;2023-01-09T03:01:35;7.80;99.90
45729;DHT22;31439;53.512;10.206;2023-01-09T03:04:05;7.80;99.90
45729;DHT22;31439;53.512;10.206;2023-01-09T03:09:09;7.80;99.90
45729;DHT22;31439;53.512;10.206;2023-01-09T03:11:41;7.80;99.90
45729;DHT22;31439;53.512;10.206;2023-01-09T03:14:21;7.80;99.90
45729;DHT22;31439;53.512;10.206;2023-01-09T03:16:52;7.80;99.90
45729;DHT22;31439;53.512;10.206;2023-01-09T03:19:20;7.70;99.90
45729;DHT22;31439;53.512;10.206;2023-01-09T03:21:48;7.80;99.90
45729;DHT22;31439;53.512;10.206;2023-01-09T03:24:15;7.80;99.90
45729;DHT22;31439;53.512;10.206;2023-01-09T03:26:41;7.80;99.90
45729;DHT22;31439;53.512;10.206;2023-01-09T03:29:07;7.80;99.90
45729;DHT22;31439;53.512;10.206;2023-01-09T03:31:33;7.80;99.90
45729;DHT22;31439;53.512;10.206;2023-01-09T03:33:58;7.80;99.90
45729;DHT22;31439;53.512;10.206;2023-01-09T03:36:24;7.80;99.90
45729;DHT22;31439;53.512;10.206;2023-01-09T03:38:50;7.80;99.90
45729;DHT22;31439;53.512;10.206;2023-01-09T03:41:17;7.80;99.90
45729;DHT22;31439;53.512;10.206;2023-01-09T03:43:44;7.80;99.90
45729;DHT22;31439;53.512;10.206;2023-01-09T03:46:10;7.80;99.90
45729;DHT22;31439;53.512;10.206;2023-01-09T03:48:35;7.80;99.90
45729;DHT22;31439;53.512;10.206;2023-01-09T03:51:01;7.80;99.90
45729;DHT22;31439;53.512;10.206;2023-01-09T03:53:27;7.90;99.90
45729;DHT22;31439;53.512;10.206;2023-01-09T03:55:55;7.90;99.90
45729;DHT22;31439;53.512;10.206;2023-01-09T03:58:22;7.90;99.90
45729;DHT22;31439;53.512;10.206;2023-01-09T04:00:48;7.90;99.90
45729;DHT22;31439;53.512;10.206;2023-01-09T04:03:16;7.90;99.90
45729;DHT22;31439;53.512;10.206;2023-01-09T04:05:43;7.90;99.90
45729;DHT22;31439;53.512;10.206;2023-01-09T04:08:09;7.90;99.90
45729;DHT22;31439;53.512;10.206;2023-01-09T04:10:35;7.80;99.90
45729;DHT22;31439;53.512;10.206;2023-01-09T04:13:01;7.80;99.90
45729;DHT22;31439;53.512;10.206;2023-01-09T04:15:26;7.90;99.90
45729;DHT22;31439;53.512;10.206;2023-01-09T04:17:52;7.90;99.90
45729;DHT22;31439;53.512;10.206;2023-01-09T04:20:18;7.90;99.90
45729;DHT22;31439;53.512;10.206;2023-01-09T04:22:43;7.90;99.90
45729;DHT22;31439;53.512;10.206;2023-01-09T04:25:09;7.90;99.90
45729;DHT22;31439;53.512;10.206;2023-01-09T04:27:36;7.80;99.90
45729;DHT22;31439;53.512;10.206;2023-01-09T04:30:01;7.70;99.90
45729;DHT22;31439;53.512;10.206;2023-01-09T04:32:27;7.70;99.90
45729;DHT22;31439;53.512;10.206;2023-01-09T04:34:53;7.80;99.90
45729;DHT22;31439;53.512;10.206;2023-01-09T04:37:20;7.80;99.90
45729;DHT22;31439;53.512;10.206;2023-01-09T04:39:45;7.80;99.90
45729;DHT22;31439;53.512;10.206;2023-01-09T04:42:12;7.80;99.90
45729;DHT22;31439;53.512;10.206;2023-01-09T04:44:37;7.80;99.90
45729;DHT22;31439;53.512;10.206;2023-01-09T04:47:04;7.80;99.90
45729;DHT22;31439;53.512;10.206;2023-01-09T04:49:29;7.80;99.90
45729;DHT22;31439;53.512;10.206;2023-01-09T04:51:55;7.90;99.90
45729;DHT22;31439;53.512;10.206;2023-01-09T04:54:21;7.90;99.90
45729;DHT22;31439;53.512;10.206;2023-01-09T04:56:47;7.90;99.90
45729;DHT22;31439;53.512;10.206;2023-01-09T04:59:12;7.80;99.90
45729;DHT22;31439;53.512;10.206;2023-01-09T05:01:38;7.80;99.90
45729;DHT22;31439;53.512;10.206;2023-01-09T05:04:04;7.90;99.90
45729;DHT22;31439;53.512;10.206;2023-01-09T05:06:30;7.80;99.90
45729;DHT22;31439;53.512;10.206;2023-01-09T05:08:57;7.90;99.90
45729;DHT22;31439;53.512;10.206;2023-01-09T05:11:23;7.90;99.90
45729;DHT22;31439;53.512;10.206;2023-01-09T05:13:50;7.80;99.90
45729;DHT22;31439;53.512;10.206;2023-01-09T05:16:16;7.80;99.90
45729;DHT22;31439;53.512;10.206;2023-01-09T05:18:42;7.90;99.90
45729;DHT22;31439;53.512;10.206;2023-01-09T05:21:07;7.90;99.90
45729;DHT22;31439;53.512;10.206;2023-01-09T05:23:33;7.90;99.90
45729;DHT22;31439;53.512;10.206;2023-01-09T05:25:59;7.90;99.90
45729;DHT22;31439;53.512;10.206;2023-01-09T05:28:24;7.90;99.90
45729;DHT22;31439;53.512;10.206;2023-01-09T05:30:50;7.90;99.90
45729;DHT22;31439;53.512;10.206;2023-01-09T05:33:15;7.90;99.90
45729;DHT22;31439;53.512;10.206;2023-01-09T05:35:41;7.90;99.90
45729;DHT22;31439;53.512;10.206;2023-01-09T05:38:07;7.90;99.90
45729;DHT22;31439;53.512;10.206;2023-01-09T05:40:32;8.00;99.90
45729;DHT22;31439;53.512;10.206;2023-01-09T05:42:58;7.90;99.90
45729;DHT22;31439;53.512;10.206;2023-01-09T05:45:23;7.90;99.90
45729;DHT22;31439;53.512;10.206;2023-01-09T05:47:51;7.90;99.90
45729;DHT22;31439;53.512;10.206;2023-01-09T05:50:17;7.90;99.90
45729;DHT22;31439;53.512;10.206;2023-01-09T05:52:43;7.90;99.90
45729;DHT22;31439;53.512;10.206;2023-01-09T05:55:10;7.90;99.90
45729;DHT22;31439;53.512;10.206;2023-01-09T05:57:36;7.90;99.90
45729;DHT22;31439;53.512;10.206;2023-01-09T06:00:02;7.90;99.90
45729;DHT22;31439;53.512;10.206;2023-01-09T06:02:28;7.90;99.90
45729;DHT22;31439;53.512;10.206;2023-01-09T06:04:53;7.90;99.90
45729;DHT22;31439;53.512;10.206;2023-01-09T06:07:19;7.80;99.90
45729;DHT22;31439;53.512;10.206;2023-01-09T06:09:45;7.90;99.90
45729;DHT22;31439;53.512;10.206;2023-01-09T06:12:10;8.00;99.90
45729;DHT22;31439;53.512;10.206;2023-01-09T06:14:36;8.00;99.90
45729;DHT22;31439;53.512;10.206;2023-01-09T06:17:02;8.00;99.90
45729;DHT22;31439;53.512;10.206;2023-01-09T06:19:27;8.00;99.90
45729;DHT22;31439;53.512;10.206;2023-01-09T06:21:53;8.20;99.90
45729;DHT22;31439;53.512;10.206;2023-01-09T06:24:18;8.00;99.90
45729;DHT22;31439;53.512;10.206;2023-01-09T06:26:44;8.00;99.90
45729;DHT22;31439;53.512;10.206;2023-01-09T06:29:10;8.00;99.90
45729;DHT22;31439;53.512;10.206;2023-01-09T06:31:35;8.00;99.90
45729;DHT22;31439;53.512;10.206;2023-01-09T06:34:01;8.00;99.90
45729;DHT22;31439;53.512;10.206;2023-01-09T06:36:27;8.00;99.90
45729;DHT22;31439;53.512;10.206;2023-01-09T06:38:52;8.00;99.90
45729;DHT22;31439;53.512;10.206;2023-01-09T06:41:18;7.90;99.90
45729;DHT22;31439;53.512;10.206;2023-01-09T06:43:44;8.00;99.90
45729;DHT22;31439;53.512;10.206;2023-01-09T06:46:09;8.00;99.90
45729;DHT22;31439;53.512;10.206;2023-01-09T06:48:35;8.00;99.90
45729;DHT22;31439;53.512;10.206;2023-01-09T06:51:01;7.90;99.90
45729;DHT22;31439;53.512;10.206;2023-01-09T06:53:27;7.90;99.90
45729;DHT22;31439;53.512;10.206;2023-01-09T06:55:52;8.00;99.90
45729;DHT22;31439;53.512;10.206;2023-01-09T06:58:18;7.90;99.90
45729;DHT22;31439;53.512;10.206;2023-01-09T07:00:43;7.90;99.90
45729;DHT22;31439;53.512;10.206;2023-01-09T07:03:09;7.90;99.90
45729;DHT22;31439;53.512;10.206;2023-01-09T07:05:40;7.90;99.90
45729;DHT22;31439;53.512;10.206;2023-01-09T07:08:07;7.80;99.90
45729;DHT22;31439;53.512;10.206;2023-01-09T07:10:33;7.80;99.90
45729;DHT22;31439;53.512;10.206;2023-01-09T07:12:58;7.90;99.90
45729;DHT22;31439;53.512;10.206;2023-01-09T07:15:24;7.90;99.90
45729;DHT22;31439;53.512;10.206;2023-01-09T07:17:53;7.90;99.90
45729;DHT22;31439;53.512;10.206;2023-01-09T07:20:19;7.90;99.90
45729;DHT22;31439;53.512;10.206;2023-01-09T07:22:45;7.90;99.90
45729;DHT22;31439;53.512;10.206;2023-01-09T07:25:11;7.80;99.90
45729;DHT22;31439;53.512;10.206;2023-01-09T07:27:37;7.80;99.90
45729;DHT22;31439;53.512;10.206;2023-01-09T07:30:03;8.00;99.90
45729;DHT22;31439;53.512;10.206;2023-01-09T07:32:30;8.30;99.90
45729;DHT22;31439;53.512;10.206;2023-01-09T07:34:56;8.30;99.90
45729;DHT22;31439;53.512;10.206;2023-01-09T07:37:21;8.10;99.90
45729;DHT22;31439;53.512;10.206;2023-01-09T07:39:47;8.00;99.90
45729;DHT22;31439;53.512;10.206;2023-01-09T07:42:13;7.90;99.90
45729;DHT22;31439;53.512;10.206;2023-01-09T07:44:38;7.90;99.90
45729;DHT22;31439;53.512;10.206;2023-01-09T07:47:04;7.80;99.90
45729;DHT22;31439;53.512;10.206;2023-01-09T07:49:30;7.80;99.90
45729;DHT22;31439;53.512;10.206;2023-01-09T07:51:55;7.70;99.90
45729;DHT22;31439;53.512;10.206;2023-01-09T07:54:21;7.70;99.90
45729;DHT22;31439;53.512;10.206;2023-01-09T07:56:47;7.70;99.90
45729;DHT22;31439;53.512;10.206;2023-01-09T07:59:13;7.70;99.90
45729;DHT22;31439;53.512;10.206;2023-01-09T08:01:38;7.70;99.90
45729;DHT22;31439;53.512;10.206;2023-01-09T08:04:04;7.60;99.90
45729;DHT22;31439;53.512;10.206;2023-01-09T08:06:30;7.50;99.90
45729;DHT22;31439;53.512;10.206;2023-01-09T08:08:56;7.50;99.90
45729;DHT22;31439;53.512;10.206;2023-01-09T08:11:22;7.60;99.90
45729;DHT22;31439;53.512;10.206;2023-01-09T08:13:48;7.60;99.90
45729;DHT22;31439;53.512;10.206;2023-01-09T08:16:14;7.60;99.90
45729;DHT22;31439;53.512;10.206;2023-01-09T08:18:40;7.50;99.90
45729;DHT22;31439;53.512;10.206;2023-01-09T08:21:06;7.50;99.90
45729;DHT22;31439;53.512;10.206;2023-01-09T08:23:31;7.50;99.90
45729;DHT22;31439;53.512;10.206;2023-01-09T08:25:57;7.50;99.90
45729;DHT22;31439;53.512;10.206;2023-01-09T08:28:23;7.50;99.90
45729;DHT22;31439;53.512;10.206;2023-01-09T08:30:48;7.50;99.90
45729;DHT22;31439;53.512;10.206;2023-01-09T08:33:14;7.60;99.90
45729;DHT22;31439;53.512;10.206;2023-01-09T08:35:42;7.50;99.90
45729;DHT22;31439;53.512;10.206;2023-01-09T08:38:07;7.50;99.90
45729;DHT22;31439;53.512;10.206;2023-01-09T08:40:33;7.50;99.90
45729;DHT22;31439;53.512;10.206;2023-01-09T08:42:59;7.40;99.90
45729;DHT22;31439;53.512;10.206;2023-01-09T08:45:43;7.50;99.90
45729;DHT22;31439;53.512;10.206;2023-01-09T08:48:27;7.50;99.90
45729;DHT22;31439;53.512;10.206;2023-01-09T08:50:53;7.50;99.90
45729;DHT22;31439;53.512;10.206;2023-01-09T08:53:19;7.50;99.90
45729;DHT22;31439;53.512;10.206;2023-01-09T08:55:44;7.50;99.90
45729;DHT22;31439;53.512;10.206;2023-01-09T08:58:10;7.60;99.90
45729;DHT22;31439;53.512;10.206;2023-01-09T09:00:36;7.60;99.90
45729;DHT22;31439;53.512;10.206;2023-01-09T09:03:02;7.50;99.90
45729;DHT22;31439;53.512;10.206;2023-01-09T09:05:29;7.50;99.90
45729;DHT22;31439;53.512;10.206;2023-01-09T09:07:56;7.50;99.90
45729;DHT22;31439;53.512;10.206;2023-01-09T09:10:23;7.50;99.90
45729;DHT22;31439;53.512;10.206;2023-01-09T09:12:51;7.60;99.90
45729;DHT22;31439;53.512;10.206;2023-01-09T09:15:17;7.90;99.90
45729;DHT22;31439;53.512;10.206;2023-01-09T09:17:52;7.80;99.90
45729;DHT22;31439;53.512;10.206;2023-01-09T09:20:23;7.70;99.90
45729;DHT22;31439;53.512;10.206;2023-01-09T09:22:49;7.60;99.90
45729;DHT22;31439;53.512;10.206;2023-01-09T09:25:16;7.60;99.90
45729;DHT22;31439;53.512;10.206;2023-01-09T09:27:42;7.60;99.90
45729;DHT22;31439;53.512;10.206;2023-01-09T09:30:09;7.60;99.90
45729;DHT22;31439;53.512;10.206;2023-01-09T09:32:35;7.50;99.90
45729;DHT22;31439;53.512;10.206;2023-01-09T09:35:01;7.60;99.90
45729;DHT22;31439;53.512;10.206;2023-01-09T09:37:27;7.60;99.90
45729;DHT22;31439;53.512;10.206;2023-01-09T09:39:53;7.60;99.90
45729;DHT22;31439;53.512;10.206;2023-01-09T09:53:39;7.60;99.90
45729;DHT22;31439;53.512;10.206;2023-01-09T09:56:10;7.60;99.90
45729;DHT22;31439;53.512;10.206;2023-01-09T09:58:39;7.60;99.90
45729;DHT22;31439;53.512;10.206;2023-01-09T10:01:06;7.60;99.90
45729;DHT22;31439;53.512;10.206;2023-01-09T10:03:44;7.60;99.90
45729;DHT22;31439;53.512;10.206;2023-01-09T10:06:34;7.60;99.90
45729;DHT22;31439;53.512;10.206;2023-01-09T10:12:00;7.70;99.90
45729;DHT22;31439;53.512;10.206;2023-01-09T10:14:29;7.60;99.90
45729;DHT22;31439;53.512;10.206;2023-01-09T10:30:20;7.60;99.90
45729;DHT22;31439;53.512;10.206;2023-01-09T10:33:17;7.60;99.90
45729;DHT22;31439;53.512;10.206;2023-01-09T10:38:32;7.70;99.90
45729;DHT22;31439;53.512;10.206;2023-01-09T10:43:58;7.60;99.90
45729;DHT22;31439;53.512;10.206;2023-01-09T10:46:40;7.50;99.90
45729;DHT22;31439;53.512;10.206;2023-01-09T10:49:15;7.50;99.90
45729;DHT22;31439;53.512;10.206;2023-01-09T10:54:23;7.70;99.90
45729;DHT22;31439;53.512;10.206;2023-01-09T10:59:34;7.70;99.90
45729;DHT22;31439;53.512;10.206;2023-01-09T11:02:00;7.70;99.90
45729;DHT22;31439;53.512;10.206;2023-01-09T11:04:30;7.50;99.90
45729;DHT22;31439;53.512;10.206;2023-01-09T11:07:04;7.40;99.90
45729;DHT22;31439;53.512;10.206;2023-01-09T11:10:08;7.40;99.90
45729;DHT22;31439;53.512;10.206;2023-01-09T11:12:37;7.60;99.90
45729;DHT22;31439;53.512;10.206;2023-01-09T11:17:41;7.60;99.90
45729;DHT22;31439;53.512;10.206;2023-01-09T11:22:50;7.70;99.90
45729;DHT22;31439;53.512;10.206;2023-01-09T11:25:17;7.80;99.90
45729;DHT22;31439;53.512;10.206;2023-01-09T11:27:54;7.90;99.90
45729;DHT22;31439;53.512;10.206;2023-01-09T11:30:55;8.00;99.90
45729;DHT22;31439;53.512;10.206;2023-01-09T11:33:23;7.90;99.90
45729;DHT22;31439;53.512;10.206;2023-01-09T11:38:21;8.00;99.90
45729;DHT22;31439;53.512;10.206;2023-01-09T11:40:58;8.10;99.90
45729;DHT22;31439;53.512;10.206;2023-01-09T11:43:36;8.20;99.90
45729;DHT22;31439;53.512;10.206;2023-01-09T11:46:09;8.20;99.90
45729;DHT22;31439;53.512;10.206;2023-01-09T11:48:54;8.20;99.90
45729;DHT22;31439;53.512;10.206;2023-01-09T11:51:29;8.40;99.90
45729;DHT22;31439;53.512;10.206;2023-01-09T11:54:18;8.60;99.90
45729;DHT22;31439;53.512;10.206;2023-01-09T11:56:46;8.90;99.90
45729;DHT22;31439;53.512;10.206;2023-01-09T11:59:21;9.10;99.90
45729;DHT22;31439;53.512;10.206;2023-01-09T12:04:36;9.30;99.90
45729;DHT22;31439;53.512;10.206;2023-01-09T12:07:24;9.20;99.90
45729;DHT22;31439;53.512;10.206;2023-01-09T12:40:21;8.60;99.90
45729;DHT22;31439;53.512;10.206;2023-01-09T12:45:46;8.90;99.90
45729;DHT22;31439;53.512;10.206;2023-01-09T12:51:54;8.70;99.90
45729;DHT22;31439;53.512;10.206;2023-01-09T12:54:38;8.60;99.90
45729;DHT22;31439;53.512;10.206;2023-01-09T13:00:03;8.50;99.90
45729;DHT22;31439;53.512;10.206;2023-01-09T13:02:38;8.50;99.90
45729;DHT22;31439;53.512;10.206;2023-01-09T13:05:08;8.50;99.90
45729;DHT22;31439;53.512;10.206;2023-01-09T13:07:47;8.40;99.90
45729;DHT22;31439;53.512;10.206;2023-01-09T13:12:52;8.50;99.90
45729;DHT22;31439;53.512;10.206;2023-01-09T13:15:32;8.60;99.90
45729;DHT22;31439;53.512;10.206;2023-01-09T13:20:44;8.50;99.90
45729;DHT22;31439;53.512;10.206;2023-01-09T13:29:18;8.60;99.90
45729;DHT22;31439;53.512;10.206;2023-01-09T13:34:45;8.60;99.90
45729;DHT22;31439;53.512;10.206;2023-01-09T13:37:29;8.60;99.90
45729;DHT22;31439;53.512;10.206;2023-01-09T13:40:02;8.50;99.90
45729;DHT22;31439;53.512;10.206;2023-01-09T13:42:29;8.50;99.90
45729;DHT22;31439;53.512;10.206;2023-01-09T13:47:42;8.40;99.90
45729;DHT22;31439;53.512;10.206;2023-01-09T13:52:43;8.50;99.90
45729;DHT22;31439;53.512;10.206;2023-01-09T14:03:12;8.50;99.90
45729;DHT22;31439;53.512;10.206;2023-01-09T14:08:09;8.50;99.90
45729;DHT22;31439;53.512;10.206;2023-01-09T14:10:47;8.50;99.90
45729;DHT22;31439;53.512;10.206;2023-01-09T14:13:17;8.50;99.90
45729;DHT22;31439;53.512;10.206;2023-01-09T14:15:45;8.50;99.90
45729;DHT22;31439;53.512;10.206;2023-01-09T14:18:15;8.50;99.90
45729;DHT22;31439;53.512;10.206;2023-01-09T14:20:43;8.50;99.90
45729;DHT22;31439;53.512;10.206;2023-01-09T14:25:47;8.40;99.90
45729;DHT22;31439;53.512;10.206;2023-01-09T14:28:23;8.40;99.90
45729;DHT22;31439;53.512;10.206;2023-01-09T14:39:07;8.40;99.90
45729;DHT22;31439;53.512;10.206;2023-01-09T14:41:51;8.40;99.90
45729;DHT22;31439;53.512;10.206;2023-01-09T14:50:02;8.40;99.90
45729;DHT22;31439;53.512;10.206;2023-01-09T14:55:05;8.30;99.90
45729;DHT22;31439;53.512;10.206;2023-01-09T14:57:33;8.30;99.90
45729;DHT22;31439;53.512;10.206;2023-01-09T15:00:11;8.30;99.90
45729;DHT22;31439;53.512;10.206;2023-01-09T15:02:39;8.30;99.90
45729;DHT22;31439;53.512;10.206;2023-01-09T15:05:08;8.20;99.90
45729;DHT22;31439;53.512;10.206;2023-01-09T15:07:44;8.20;99.90
45729;DHT22;31439;53.512;10.206;2023-01-09T15:10:27;8.20;99.90
45729;DHT22;31439;53.512;10.206;2023-01-09T15:12:55;8.20;99.90
45729;DHT22;31439;53.512;10.206;2023-01-09T15:15:21;8.10;99.90
45729;DHT22;31439;53.512;10.206;2023-01-09T15:18:00;8.00;99.90
45729;DHT22;31439;53.512;10.206;2023-01-09T15:20:29;8.00;99.90
45729;DHT22;31439;53.512;10.206;2023-01-09T15:22:56;8.00;99.90
45729;DHT22;31439;53.512;10.206;2023-01-09T15:25:23;8.00;99.90
45729;DHT22;31439;53.512;10.206;2023-01-09T15:27:50;8.00;99.90
45729;DHT22;31439;53.512;10.206;2023-01-09T15:30:32;8.00;99.90
45729;DHT22;31439;53.512;10.206;2023-01-09T15:33:13;8.00;99.90
45729;DHT22;31439;53.512;10.206;2023-01-09T15:35:44;8.00;99.90
45729;DHT22;31439;53.512;10.206;2023-01-09T15:38:17;8.10;99.90
45729;DHT22;31439;53.512;10.206;2023-01-09T15:41:37;8.00;99.90
45729;DHT22;31439;53.512;10.206;2023-01-09T15:43:42;8.00;99.90
45729;DHT22;31439;53.512;10.206;2023-01-09T15:46:10;8.00;99.90
45729;DHT22;31439;53.512;10.206;2023-01-09T15:48:36;8.00;99.90
45729;DHT22;31439;53.512;10.206;2023-01-09T15:51:08;8.00;99.90
45729;DHT22;31439;53.512;10.206;2023-01-09T15:53:45;8.00;99.90
45729;DHT22;31439;53.512;10.206;2023-01-09T15:58:39;8.00;99.90
45729;DHT22;31439;53.512;10.206;2023-01-09T16:01:32;8.00;99.90
45729;DHT22;31439;53.512;10.206;2023-01-09T16:04:11;8.00;99.90
45729;DHT22;31439;53.512;10.206;2023-01-09T16:06:44;8.00;99.90
45729;DHT22;31439;53.512;10.206;2023-01-09T16:09:28;8.00;99.90
45729;DHT22;31439;53.512;10.206;2023-01-09T16:12:00;7.90;99.90
45729;DHT22;31439;53.512;10.206;2023-01-09T16:14:37;7.90;99.90
45729;DHT22;31439;53.512;10.206;2023-01-09T16:17:06;8.00;99.90
45729;DHT22;31439;53.512;10.206;2023-01-09T16:19:58;7.90;99.90
45729;DHT22;31439;53.512;10.206;2023-01-09T16:22:37;7.90;99.90
45729;DHT22;31439;53.512;10.206;2023-01-09T16:25:34;7.90;99.90
45729;DHT22;31439;53.512;10.206;2023-01-09T16:28:19;7.80;99.90
45729;DHT22;31439;53.512;10.206;2023-01-09T16:30:57;7.80;99.90
45729;DHT22;31439;53.512;10.206;2023-01-09T16:33:26;7.80;99.90
45729;DHT22;31439;53.512;10.206;2023-01-09T16:35:55;7.80;99.90
45729;DHT22;31439;53.512;10.206;2023-01-09T16:38:23;7.70;99.90
45729;DHT22;31439;53.512;10.206;2023-01-09T16:43:47;7.70;99.90
45729;DHT22;31439;53.512;10.206;2023-01-09T16:46:14;7.70;99.90
45729;DHT22;31439;53.512;10.206;2023-01-09T16:48:40;7.70;99.90
45729;DHT22;31439;53.512;10.206;2023-01-09T16:51:15;7.70;99.90
45729;DHT22;31439;53.512;10.206;2023-01-09T16:53:41;7.70;99.90
45729;DHT22;31439;53.512;10.206;2023-01-09T16:56:21;7.80;99.90
45729;DHT22;31439;53.512;10.206;2023-01-09T16:58:48;7.60;99.90
45729;DHT22;31439;53.512;10.206;2023-01-09T17:01:14;7.50;99.90
45729;DHT22;31439;53.512;10.206;2023-01-09T17:03:43;7.60;99.90
45729;DHT22;31439;53.512;10.206;2023-01-09T17:06:29;7.60;99.90
45729;DHT22;31439;53.512;10.206;2023-01-09T17:08:55;7.60;99.90
45729;DHT22;31439;53.512;10.206;2023-01-09T17:11:26;7.60;99.90
45729;DHT22;31439;53.512;10.206;2023-01-09T17:13:56;7.60;99.90
45729;DHT22;31439;53.512;10.206;2023-01-09T17:16:22;7.60;99.90
45729;DHT22;31439;53.512;10.206;2023-01-09T17:18:48;7.50;99.90
45729;DHT22;31439;53.512;10.206;2023-01-09T17:21:19;7.50;99.90
45729;DHT22;31439;53.512;10.206;2023-01-09T17:23:46;7.50;99.90
45729;DHT22;31439;53.512;10.206;2023-01-09T17:26:17;7.50;99.90
45729;DHT22;31439;53.512;10.206;2023-01-09T17:29:02;7.60;99.90
45729;DHT22;31439;53.512;10.206;2023-01-09T17:31:28;7.60;99.90
45729;DHT22;31439;53.512;10.206;2023-01-09T17:33:56;7.60;99.90
45729;DHT22;31439;53.512;10.206;2023-01-09T17:38:47;7.60;99.90
45729;DHT22;31439;53.512;10.206;2023-01-09T17:41:22;7.50;99.90
45729;DHT22;31439;53.512;10.206;2023-01-09T17:43:48;7.50;99.90
45729;DHT22;31439;53.512;10.206;2023-01-09T17:46:15;7.50;99.90
45729;DHT22;31439;53.512;10.206;2023-01-09T17:48:42;7.60;99.90
45729;DHT22;31439;53.512;10.206;2023-01-09T17:51:09;7.50;99.90
45729;DHT22;31439;53.512;10.206;2023-01-09T17:53:35;7.60;99.90
45729;DHT22;31439;53.512;10.206;2023-01-09T17:56:00;7.50;99.90
45729;DHT22;31439;53.512;10.206;2023-01-09T17:58:27;7.60;99.90
45729;DHT22;31439;53.512;10.206;2023-01-09T18:00:58;7.60;99.90
45729;DHT22;31439;53.512;10.206;2023-01-09T18:03:24;7.60;99.90
45729;DHT22;31439;53.512;10.206;2023-01-09T18:05:55;7.50;99.90
45729;DHT22;31439;53.512;10.206;2023-01-09T18:08:21;7.60;99.90
45729;DHT22;31439;53.512;10.206;2023-01-09T18:10:46;7.60;99.90
45729;DHT22;31439;53.512;10.206;2023-01-09T18:13:13;7.60;99.90
45729;DHT22;31439;53.512;10.206;2023-01-09T18:15:44;7.60;99.90
45729;DHT22;31439;53.512;10.206;2023-01-09T18:18:10;7.60;99.90
45729;DHT22;31439;53.512;10.206;2023-01-09T18:20:40;7.60;99.90
45729;DHT22;31439;53.512;10.206;2023-01-09T18:23:07;7.60;99.90
45729;DHT22;31439;53.512;10.206;2023-01-09T18:25:32;7.60;99.90
45729;DHT22;31439;53.512;10.206;2023-01-09T18:27:58;7.60;99.90
45729;DHT22;31439;53.512;10.206;2023-01-09T18:30:27;7.60;99.90